aviador You're here:

SBFL Decoded Metar

FLORIANOPOLIS in BRAZIL
Report Time2018-05-28 05:00:00
UTC Time2018-05-28 05:16:40
Flight Rules vfr VFR
Wind310° at 06 kt
W.Decomp.*RWY 32: 5.9 kt HW 0.9 kt RCW
RWY 03: 2.9 kt HW 5.2 kt LCW
W.Rank310° ranks 14
Current wind is above 310° avg. (5.6)
Visibility9999 m
Phenomena:N/A
Clouds:N/A
Expected CloudBase > 800 ft AGL from Temp-Dew spread
CeilingNone
Temp19°C (ISA +4)
Dew Point17°C (88% RH)
QNH1024 hPa
Density Alt374 ft
Elevation16 ft
Report Wrong Elevation
Raw Report
SBFL 280500Z 31006KT CAVOK 19/17 Q1024=

Extra information for SBFL:More info

Metar Taf Metar & Taf Last 4 Metars F.Rules Stats Wind Profile Meteogram Temp Stats Airport Information Weather charts Add Link Nearby VenuesMetar ALERT Operation Metar Decoded Social comments